sensor_id;sensor_type;location;lat;lon;timestamp;pressure;altitude;pressure_sealevel;temperature;humidity
23363;BME280;11853;48.080;11.960;2023-02-13T00:00:45;96624.81;;;3.06;100.00
23363;BME280;11853;48.080;11.960;2023-02-13T00:03:11;96622.00;;;3.11;100.00
23363;BME280;11853;48.080;11.960;2023-02-13T00:05:36;96622.25;;;3.05;100.00
23363;BME280;11853;48.080;11.960;2023-02-13T00:08:02;96623.34;;;2.99;100.00
23363;BME280;11853;48.080;11.960;2023-02-13T00:10:28;96626.81;;;3.00;100.00
23363;BME280;11853;48.080;11.960;2023-02-13T00:12:53;96627.25;;;3.11;100.00
23363;BME280;11853;48.080;11.960;2023-02-13T00:15:19;96624.84;;;3.27;100.00
23363;BME280;11853;48.080;11.960;2023-02-13T00:17:45;96622.00;;;3.11;100.00
23363;BME280;11853;48.080;11.960;2023-02-13T00:20:11;96617.59;;;3.11;100.00
23363;BME280;11853;48.080;11.960;2023-02-13T00:22:38;96617.94;;;3.04;100.00
23363;BME280;11853;48.080;11.960;2023-02-13T00:25:06;96615.63;;;2.74;100.00
23363;BME280;11853;48.080;11.960;2023-02-13T00:27:32;96616.47;;;2.75;100.00
23363;BME280;11853;48.080;11.960;2023-02-13T00:29:58;96605.13;;;2.74;100.00
23363;BME280;11853;48.080;11.960;2023-02-13T00:32:23;96618.66;;;2.85;100.00
23363;BME280;11853;48.080;11.960;2023-02-13T00:34:49;96614.97;;;2.69;100.00
23363;BME280;11853;48.080;11.960;2023-02-13T00:37:14;96609.81;;;2.66;100.00
23363;BME280;11853;48.080;11.960;2023-02-13T00:39:40;96602.88;;;2.65;100.00
23363;BME280;11853;48.080;11.960;2023-02-13T00:42:06;96598.38;;;2.68;100.00
23363;BME280;11853;48.080;11.960;2023-02-13T00:44:32;96599.78;;;2.77;100.00
23363;BME280;11853;48.080;11.960;2023-02-13T00:46:57;96602.94;;;2.85;100.00
23363;BME280;11853;48.080;11.960;2023-02-13T00:49:23;96600.66;;;2.78;100.00
23363;BME280;11853;48.080;11.960;2023-02-13T00:51:49;96602.38;;;2.77;100.00
23363;BME280;11853;48.080;11.960;2023-02-13T00:54:15;96602.63;;;2.71;100.00
23363;BME280;11853;48.080;11.960;2023-02-13T00:56:40;96592.88;;;2.75;100.00
23363;BME280;11853;48.080;11.960;2023-02-13T00:59:07;96587.91;;;2.68;100.00
23363;BME280;11853;48.080;11.960;2023-02-13T01:01:32;96585.94;;;2.52;100.00
23363;BME280;11853;48.080;11.960;2023-02-13T01:03:59;96587.78;;;2.50;100.00
23363;BME280;11853;48.080;11.960;2023-02-13T01:06:25;96587.09;;;2.44;100.00
23363;BME280;11853;48.080;11.960;2023-02-13T01:08:50;96599.25;;;2.47;100.00
23363;BME280;11853;48.080;11.960;2023-02-13T01:11:16;96593.91;;;2.48;100.00
23363;BME280;11853;48.080;11.960;2023-02-13T01:13:43;96592.50;;;2.40;100.00
23363;BME280;11853;48.080;11.960;2023-02-13T01:16:09;96593.59;;;2.34;100.00
23363;BME280;11853;48.080;11.960;2023-02-13T01:18:35;96594.56;;;2.32;100.00
23363;BME280;11853;48.080;11.960;2023-02-13T01:21:04;96586.19;;;2.45;100.00
23363;BME280;11853;48.080;11.960;2023-02-13T01:23:35;96587.72;;;2.51;100.00
23363;BME280;11853;48.080;11.960;2023-02-13T01:26:06;96588.88;;;2.44;100.00
23363;BME280;11853;48.080;11.960;2023-02-13T01:28:32;96585.66;;;2.59;100.00
23363;BME280;11853;48.080;11.960;2023-02-13T01:30:58;96585.06;;;2.53;100.00
23363;BME280;11853;48.080;11.960;2023-02-13T01:33:25;96587.09;;;2.44;100.00
23363;BME280;11853;48.080;11.960;2023-02-13T01:35:51;96593.16;;;2.46;100.00
23363;BME280;11853;48.080;11.960;2023-02-13T01:38:17;96589.47;;;2.51;100.00
23363;BME280;11853;48.080;11.960;2023-02-13T01:40:50;96590.53;;;2.46;100.00
23363;BME280;11853;48.080;11.960;2023-02-13T01:43:17;96594.09;;;2.66;100.00
23363;BME280;11853;48.080;11.960;2023-02-13T01:45:46;96590.72;;;2.64;100.00
23363;BME280;11853;48.080;11.960;2023-02-13T01:48:18;96586.69;;;2.55;100.00
23363;BME280;11853;48.080;11.960;2023-02-13T01:53:25;96589.47;;;2.51;100.00
23363;BME280;11853;48.080;11.960;2023-02-13T01:55:59;96590.88;;;2.59;100.00
23363;BME280;11853;48.080;11.960;2023-02-13T01:58:30;96578.22;;;2.48;100.00
23363;BME280;11853;48.080;11.960;2023-02-13T02:00:57;96583.13;;;2.34;100.00
23363;BME280;11853;48.080;11.960;2023-02-13T02:03:28;96584.97;;;2.32;100.00
23363;BME280;11853;48.080;11.960;2023-02-13T02:05:58;96579.84;;;2.51;100.00
23363;BME280;11853;48.080;11.960;2023-02-13T02:08:25;96575.03;;;2.40;100.00
23363;BME280;11853;48.080;11.960;2023-02-13T02:10:52;96581.78;;;2.46;100.00
23363;BME280;11853;48.080;11.960;2023-02-13T02:13:20;96587.16;;;2.43;100.00
23363;BME280;11853;48.080;11.960;2023-02-13T02:15:47;96585.09;;;2.29;100.00
23363;BME280;11853;48.080;11.960;2023-02-13T02:18:15;96582.16;;;2.15;100.00
23363;BME280;11853;48.080;11.960;2023-02-13T02:32:39;96573.50;;;2.13;100.00
23363;BME280;11853;48.080;11.960;2023-02-13T02:35:30;96572.13;;;2.02;100.00
23363;BME280;11853;48.080;11.960;2023-02-13T02:43:51;96588.88;;;1.98;100.00
23363;BME280;11853;48.080;11.960;2023-02-13T02:46:30;96589.44;;;2.07;100.00
23363;BME280;11853;48.080;11.960;2023-02-13T02:49:12;96594.03;;;2.23;100.00
23363;BME280;11853;48.080;11.960;2023-02-13T02:52:20;96591.38;;;2.01;100.00
23363;BME280;11853;48.080;11.960;2023-02-13T02:54:54;96590.09;;;1.88;100.00
23363;BME280;11853;48.080;11.960;2023-02-13T02:57:33;96598.53;;;1.96;100.00
23363;BME280;11853;48.080;11.960;2023-02-13T03:00:22;96594.91;;;2.00;100.00
23363;BME280;11853;48.080;11.960;2023-02-13T03:03:22;96591.13;;;2.08;100.00
23363;BME280;11853;48.080;11.960;2023-02-13T03:06:22;96601.09;;;1.98;100.00
23363;BME280;11853;48.080;11.960;2023-02-13T03:08:59;96599.03;;;1.83;100.00
23363;BME280;11853;48.080;11.960;2023-02-13T03:11:48;96597.78;;;1.69;100.00
23363;BME280;11853;48.080;11.960;2023-02-13T03:14:33;96595.59;;;1.57;100.00
23363;BME280;11853;48.080;11.960;2023-02-13T03:16:59;96597.84;;;1.68;100.00
23363;BME280;11853;48.080;11.960;2023-02-13T03:19:57;96606.41;;;1.71;100.00
23363;BME280;11853;48.080;11.960;2023-02-13T03:28:58;96603.50;;;1.80;100.00
23363;BME280;11853;48.080;11.960;2023-02-13T03:31:53;96601.25;;;1.70;100.00
23363;BME280;11853;48.080;11.960;2023-02-13T03:34:28;96602.22;;;1.67;100.00
23363;BME280;11853;48.080;11.960;2023-02-13T03:37:27;96609.03;;;1.71;100.00
23363;BME280;11853;48.080;11.960;2023-02-13T03:40:26;96612.59;;;1.69;100.00
23363;BME280;11853;48.080;11.960;2023-02-13T03:43:04;96607.19;;;1.75;100.00
23363;BME280;11853;48.080;11.960;2023-02-13T03:45:36;96603.41;;;1.82;100.00
23363;BME280;11853;48.080;11.960;2023-02-13T03:48:32;96600.28;;;1.72;100.00
23363;BME280;11853;48.080;11.960;2023-02-13T03:51:31;96613.50;;;1.44;100.00
23363;BME280;11853;48.080;11.960;2023-02-13T03:54:10;96611.34;;;1.30;100.00
23363;BME280;11853;48.080;11.960;2023-02-13T03:56:40;96608.31;;;1.43;100.00
23363;BME280;11853;48.080;11.960;2023-02-13T03:59:29;96607.44;;;1.42;100.00
23363;BME280;11853;48.080;11.960;2023-02-13T04:02:14;96606.06;;;1.57;100.00
23363;BME280;11853;48.080;11.960;2023-02-13T04:05:02;96609.44;;;1.61;100.00
23363;BME280;11853;48.080;11.960;2023-02-13T04:07:29;96610.31;;;1.60;100.00
23363;BME280;11853;48.080;11.960;2023-02-13T04:15:32;96606.94;;;1.57;100.00
23363;BME280;11853;48.080;11.960;2023-02-13T04:18:09;96614.72;;;1.59;100.00
23363;BME280;11853;48.080;11.960;2023-02-13T04:20:38;96609.31;;;1.64;100.00
23363;BME280;11853;48.080;11.960;2023-02-13T04:23:06;96604.84;;;1.67;100.00
23363;BME280;11853;48.080;11.960;2023-02-13T04:25:33;96620.16;;;1.53;100.00
23363;BME280;11853;48.080;11.960;2023-02-13T04:28:00;96608.66;;;1.57;100.00
23363;BME280;11853;48.080;11.960;2023-02-13T04:30:26;96606.59;;;1.67;100.00
23363;BME280;11853;48.080;11.960;2023-02-13T04:32:51;96599.03;;;1.59;100.00
23363;BME280;11853;48.080;11.960;2023-02-13T04:35:17;96600.81;;;1.57;100.00
23363;BME280;11853;48.080;11.960;2023-02-13T04:37:43;96594.84;;;1.53;100.00
23363;BME280;11853;48.080;11.960;2023-02-13T04:40:10;96599.75;;;1.63;100.00
23363;BME280;11853;48.080;11.960;2023-02-13T04:42:36;96602.91;;;1.47;100.00
23363;BME280;11853;48.080;11.960;2023-02-13T04:45:02;96592.94;;;1.58;100.00
23363;BME280;11853;48.080;11.960;2023-02-13T04:47:27;96589.59;;;1.78;100.00
23363;BME280;11853;48.080;11.960;2023-02-13T04:49:53;96596.31;;;1.86;100.00
23363;BME280;11853;48.080;11.960;2023-02-13T04:52:24;96592.25;;;1.77;100.00
23363;BME280;11853;48.080;11.960;2023-02-13T04:55:10;96587.56;;;1.87;100.00
23363;BME280;11853;48.080;11.960;2023-02-13T04:57:36;96597.56;;;1.99;100.00
23363;BME280;11853;48.080;11.960;2023-02-13T05:00:03;96587.06;;;2.00;100.00
23363;BME280;11853;48.080;11.960;2023-02-13T05:02:30;96586.66;;;1.88;100.00
23363;BME280;11853;48.080;11.960;2023-02-13T05:04:56;96585.59;;;1.68;100.00
23363;BME280;11853;48.080;11.960;2023-02-13T05:07:36;96592.50;;;1.71;100.00
23363;BME280;11853;48.080;11.960;2023-02-13T05:10:02;96592.56;;;1.69;100.00
23363;BME280;11853;48.080;11.960;2023-02-13T05:12:28;96588.88;;;1.75;100.00
23363;BME280;11853;48.080;11.960;2023-02-13T05:14:53;96588.06;;;1.73;100.00
23363;BME280;11853;48.080;11.960;2023-02-13T05:17:19;96586.81;;;1.83;100.00
23363;BME280;11853;48.080;11.960;2023-02-13T05:19:44;96586.81;;;1.83;100.00
23363;BME280;11853;48.080;11.960;2023-02-13T05:22:10;96583.75;;;1.95;100.00
23363;BME280;11853;48.080;11.960;2023-02-13T05:24:54;96583.69;;;1.97;100.00
23363;BME280;11853;48.080;11.960;2023-02-13T05:27:20;96588.19;;;1.93;100.00
23363;BME280;11853;48.080;11.960;2023-02-13T05:29:45;96586.03;;;2.05;100.00
23363;BME280;11853;48.080;11.960;2023-02-13T05:32:11;96595.44;;;2.09;100.00
23363;BME280;11853;48.080;11.960;2023-02-13T05:34:37;96592.50;;;2.18;100.00
23363;BME280;11853;48.080;11.960;2023-02-13T05:37:02;96592.16;;;2.27;100.00
23363;BME280;11853;48.080;11.960;2023-02-13T05:39:28;96598.13;;;2.31;100.00
23363;BME280;11853;48.080;11.960;2023-02-13T05:41:53;96596.91;;;2.39;100.00
23363;BME280;11853;48.080;11.960;2023-02-13T05:44:19;96598.44;;;2.45;100.00
23363;BME280;11853;48.080;11.960;2023-02-13T05:46:44;96608.63;;;2.53;100.00
23363;BME280;11853;48.080;11.960;2023-02-13T05:49:11;96600.56;;;2.57;100.00
23363;BME280;11853;48.080;11.960;2023-02-13T05:51:37;96597.06;;;2.58;100.00
23363;BME280;11853;48.080;11.960;2023-02-13T05:54:03;96602.16;;;2.61;100.00
23363;BME280;11853;48.080;11.960;2023-02-13T05:56:28;96601.88;;;2.69;100.00
23363;BME280;11853;48.080;11.960;2023-02-13T05:58:55;96611.56;;;2.67;100.00
23363;BME280;11853;48.080;11.960;2023-02-13T06:01:23;96609.81;;;2.66;100.00
23363;BME280;11853;48.080;11.960;2023-02-13T06:03:49;96608.72;;;2.71;100.00
23363;BME280;11853;48.080;11.960;2023-02-13T06:06:15;96613.00;;;2.74;100.00
23363;BME280;11853;48.080;11.960;2023-02-13T06:08:41;96614.91;;;2.70;100.00
23363;BME280;11853;48.080;11.960;2023-02-13T06:11:08;96624.56;;;2.68;100.00
23363;BME280;11853;48.080;11.960;2023-02-13T06:13:34;96624.31;;;2.75;100.00
23363;BME280;11853;48.080;11.960;2023-02-13T06:15:59;96620.44;;;2.63;100.00
23363;BME280;11853;48.080;11.960;2023-02-13T06:18:25;96625.03;;;2.58;100.00
23363;BME280;11853;48.080;11.960;2023-02-13T06:20:50;96626.28;;;2.47;100.00
23363;BME280;11853;48.080;11.960;2023-02-13T06:23:18;96620.56;;;2.38;100.00
23363;BME280;11853;48.080;11.960;2023-02-13T06:25:44;96624.19;;;2.34;100.00
23363;BME280;11853;48.080;11.960;2023-02-13T06:28:09;96632.84;;;2.36;100.00
23363;BME280;11853;48.080;11.960;2023-02-13T06:30:36;96634.72;;;2.32;100.00
23363;BME280;11853;48.080;11.960;2023-02-13T06:33:01;96636.47;;;2.32;100.00
23363;BME280;11853;48.080;11.960;2023-02-13T06:35:27;96640.84;;;2.31;100.00
23363;BME280;11853;48.080;11.960;2023-02-13T06:37:52;96647.00;;;2.30;100.00
23363;BME280;11853;48.080;11.960;2023-02-13T06:40:19;96646.06;;;2.33;100.00
23363;BME280;11853;48.080;11.960;2023-02-13T06:42:45;96653.72;;;2.37;100.00
23363;BME280;11853;48.080;11.960;2023-02-13T06:45:11;96648.59;;;2.34;100.00
23363;BME280;11853;48.080;11.960;2023-02-13T06:47:45;96651.09;;;2.37;100.00
23363;BME280;11853;48.080;11.960;2023-02-13T06:50:13;96650.97;;;2.40;100.00
23363;BME280;11853;48.080;11.960;2023-02-13T06:52:45;96645.09;;;2.35;100.00
23363;BME280;11853;48.080;11.960;2023-02-13T06:55:10;96647.50;;;2.40;100.00
23363;BME280;11853;48.080;11.960;2023-02-13T06:57:36;96653.38;;;2.46;100.00
23363;BME280;11853;48.080;11.960;2023-02-13T07:00:05;96650.94;;;2.42;100.00
23363;BME280;11853;48.080;11.960;2023-02-13T07:02:31;96655.03;;;2.49;100.00
23363;BME280;11853;48.080;11.960;2023-02-13T07:04:57;96643.97;;;2.64;100.00
23363;BME280;11853;48.080;11.960;2023-02-13T07:07:22;96655.88;;;2.50;100.00
23363;BME280;11853;48.080;11.960;2023-02-13T07:09:48;96660.38;;;2.46;100.00
23363;BME280;11853;48.080;11.960;2023-02-13T07:12:13;96662.94;;;2.47;100.00
23363;BME280;11853;48.080;11.960;2023-02-13T07:14:39;96661.28;;;2.45;100.00
23363;BME280;11853;48.080;11.960;2023-02-13T07:17:05;96665.53;;;2.49;100.00
23363;BME280;11853;48.080;11.960;2023-02-13T07:19:31;96667.34;;;2.47;100.00
23363;BME280;11853;48.080;11.960;2023-02-13T07:21:57;96668.28;;;2.44;100.00
23363;BME280;11853;48.080;11.960;2023-02-13T07:24:22;96677.56;;;2.53;100.00
23363;BME280;11853;48.080;11.960;2023-02-13T07:26:48;96679.91;;;2.61;100.00
23363;BME280;11853;48.080;11.960;2023-02-13T07:29:14;96687.66;;;2.64;100.00
23363;BME280;11853;48.080;11.960;2023-02-13T07:31:39;96692.69;;;2.46;100.00
23363;BME280;11853;48.080;11.960;2023-02-13T07:34:05;96691.97;;;2.41;100.00
23363;BME280;11853;48.080;11.960;2023-02-13T07:36:31;96696.53;;;2.36;100.00
23363;BME280;11853;48.080;11.960;2023-02-13T07:38:56;96700.19;;;2.32;100.00
23363;BME280;11853;48.080;11.960;2023-02-13T07:41:22;96694.84;;;2.35;100.00
23363;BME280;11853;48.080;11.960;2023-02-13T07:43:51;96702.63;;;2.37;100.00
23363;BME280;11853;48.080;11.960;2023-02-13T07:46:17;96702.13;;;2.27;100.00
23363;BME280;11853;48.080;11.960;2023-02-13T07:48:42;96697.00;;;2.24;100.00
23363;BME280;11853;48.080;11.960;2023-02-13T07:51:08;96712.69;;;2.24;100.00
23363;BME280;11853;48.080;11.960;2023-02-13T07:53:34;96707.09;;;2.35;100.00
23363;BME280;11853;48.080;11.960;2023-02-13T07:56:05;96709.25;;;2.47;100.00
23363;BME280;11853;48.080;11.960;2023-02-13T07:58:30;96714.69;;;2.64;100.00
23363;BME280;11853;48.080;11.960;2023-02-13T08:00:56;96713.50;;;2.73;100.00
23363;BME280;11853;48.080;11.960;2023-02-13T08:03:21;96718.31;;;2.84;100.00
23363;BME280;11853;48.080;11.960;2023-02-13T08:05:47;96726.22;;;2.82;100.00
23363;BME280;11853;48.080;11.960;2023-02-13T08:08:13;96729.13;;;2.75;100.00
23363;BME280;11853;48.080;11.960;2023-02-13T08:10:39;96726.91;;;2.87;100.00
23363;BME280;11853;48.080;11.960;2023-02-13T08:13:23;96719.94;;;3.10;100.00
23363;BME280;11853;48.080;11.960;2023-02-13T08:15:48;96718.81;;;2.93;100.00
23363;BME280;11853;48.080;11.960;2023-02-13T08:18:14;96719.06;;;2.87;100.00
23363;BME280;11853;48.080;11.960;2023-02-13T08:20:39;96720.09;;;2.83;100.00
23363;BME280;11853;48.080;11.960;2023-02-13T08:23:06;96714.16;;;3.00;100.00
23363;BME280;11853;48.080;11.960;2023-02-13T08:25:34;96719.06;;;3.09;100.00
23363;BME280;11853;48.080;11.960;2023-02-13T08:28:00;96715.16;;;3.20;100.00
23363;BME280;11853;48.080;11.960;2023-02-13T08:30:26;96719.31;;;3.25;100.00
23363;BME280;11853;48.080;11.960;2023-02-13T08:32:54;96720.59;;;3.15;100.00
23363;BME280;11853;48.080;11.960;2023-02-13T08:35:20;96714.25;;;2.99;100.00
23363;BME280;11853;48.080;11.960;2023-02-13T08:37:46;96723.09;;;2.96;100.00
23363;BME280;11853;48.080;11.960;2023-02-13T08:40:12;96729.28;;;2.93;100.00
23363;BME280;11853;48.080;11.960;2023-02-13T08:42:38;96720.19;;;2.80;100.00
23363;BME280;11853;48.080;11.960;2023-02-13T08:45:04;96719.19;;;2.84;100.00
23363;BME280;11853;48.080;11.960;2023-02-13T08:47:30;96720.38;;;2.76;100.00
23363;BME280;11853;48.080;11.960;2023-02-13T08:49:56;96720.25;;;2.79;100.00
23363;BME280;11853;48.080;11.960;2023-02-13T08:52:22;96725.34;;;2.60;100.00
23363;BME280;11853;48.080;11.960;2023-02-13T08:54:48;96720.31;;;2.54;100.00
23363;BME280;11853;48.080;11.960;2023-02-13T08:57:14;96727.25;;;2.55;100.00
23363;BME280;11853;48.080;11.960;2023-02-13T08:59:39;96729.00;;;2.32;100.00
23363;BME280;11853;48.080;11.960;2023-02-13T09:02:05;96732.91;;;2.44;100.00
23363;BME280;11853;48.080;11.960;2023-02-13T09:04:30;96727.25;;;2.55;100.00
23363;BME280;11853;48.080;11.960;2023-02-13T09:06:56;96718.06;;;2.44;100.00
23363;BME280;11853;48.080;11.960;2023-02-13T09:09:22;96723.78;;;2.54;100.00
23363;BME280;11853;48.080;11.960;2023-02-13T09:11:47;96731.25;;;2.65;100.00
23363;BME280;11853;48.080;11.960;2023-02-13T09:14:15;96720.75;;;2.66;100.00
23363;BME280;11853;48.080;11.960;2023-02-13T09:16:40;96730.13;;;2.72;100.00
23363;BME280;11853;48.080;11.960;2023-02-13T09:19:06;96730.47;;;2.63;100.00
23363;BME280;11853;48.080;11.960;2023-02-13T09:21:32;96737.66;;;2.58;100.00
23363;BME280;11853;48.080;11.960;2023-02-13T09:23:57;96734.72;;;2.65;100.00
23363;BME280;11853;48.080;11.960;2023-02-13T09:26:23;96734.69;;;2.67;100.00
23363;BME280;11853;48.080;11.960;2023-02-13T09:28:48;96734.56;;;2.70;100.00
23363;BME280;11853;48.080;11.960;2023-02-13T09:31:16;96733.41;;;2.77;100.00
23363;BME280;11853;48.080;11.960;2023-02-13T09:33:43;96722.41;;;2.69;100.00
23363;BME280;11853;48.080;11.960;2023-02-13T09:36:12;96724.94;;;2.70;100.00
23363;BME280;11853;48.080;11.960;2023-02-13T09:38:40;96730.13;;;2.72;100.00
23363;BME280;11853;48.080;11.960;2023-02-13T09:41:38;96729.91;;;2.78;100.00
23363;BME280;11853;48.080;11.960;2023-02-13T09:49:43;96734.34;;;2.76;100.00
23363;BME280;11853;48.080;11.960;2023-02-13T09:52:10;96742.53;;;2.67;100.00
23363;BME280;11853;48.080;11.960;2023-02-13T09:54:36;96737.34;;;2.65;100.00
23363;BME280;11853;48.080;11.960;2023-02-13T10:16:16;96740.28;;;2.58;100.00
23363;BME280;11853;48.080;11.960;2023-02-13T10:18:58;96749.94;;;2.56;100.00
23363;BME280;11853;48.080;11.960;2023-02-13T10:21:41;96739.00;;;2.68;100.00
23363;BME280;11853;48.080;11.960;2023-02-13T10:26:46;96748.34;;;2.52;100.00
23363;BME280;11853;48.080;11.960;2023-02-13T10:29:41;96735.81;;;2.60;100.00
23363;BME280;11853;48.080;11.960;2023-02-13T10:35:19;96745.22;;;2.65;100.00
23363;BME280;11853;48.080;11.960;2023-02-13T10:37:48;96739.13;;;2.65;100.00
23363;BME280;11853;48.080;11.960;2023-02-13T10:40:17;96732.63;;;2.75;100.00
23363;BME280;11853;48.080;11.960;2023-02-13T10:42:45;96738.19;;;2.66;100.00
23363;BME280;11853;48.080;11.960;2023-02-13T10:45:55;96737.53;;;2.61;100.00
23363;BME280;11853;48.080;11.960;2023-02-13T10:51:41;96724.94;;;2.70;100.00
23363;BME280;11853;48.080;11.960;2023-02-13T10:59:39;96715.50;;;2.88;100.00
23363;BME280;11853;48.080;11.960;2023-02-13T11:02:28;96711.66;;;2.97;100.00
23363;BME280;11853;48.080;11.960;2023-02-13T11:05:00;96712.75;;;2.91;100.00
23363;BME280;11853;48.080;11.960;2023-02-13T11:07:26;96717.03;;;2.94;100.00
23363;BME280;11853;48.080;11.960;2023-02-13T11:10:00;96710.25;;;2.88;100.00
23363;BME280;11853;48.080;11.960;2023-02-13T11:12:30;96715.81;;;3.03;100.00
23363;BME280;11853;48.080;11.960;2023-02-13T11:14:58;96709.44;;;3.10;100.00
23363;BME280;11853;48.080;11.960;2023-02-13T11:17:26;96701.31;;;3.16;100.00
23363;BME280;11853;48.080;11.960;2023-02-13T11:19:58;96706.25;;;3.02;100.00
23363;BME280;11853;48.080;11.960;2023-02-13T11:22:38;96696.31;;;2.88;100.00
23363;BME280;11853;48.080;11.960;2023-02-13T11:25:26;96699.19;;;3.04;100.00
23363;BME280;11853;48.080;11.960;2023-02-13T11:28:14;96702.38;;;3.12;100.00
23363;BME280;11853;48.080;11.960;2023-02-13T11:30:42;96703.81;;;3.19;100.00
23363;BME280;11853;48.080;11.960;2023-02-13T11:33:23;96695.41;;;3.33;100.00
23363;BME280;11853;48.080;11.960;2023-02-13T11:36:29;96696.00;;;3.39;100.00
23363;BME280;11853;48.080;11.960;2023-02-13T11:41:25;96683.31;;;3.29;100.00
23363;BME280;11853;48.080;11.960;2023-02-13T11:43:56;96692.41;;;3.20;100.00
23363;BME280;11853;48.080;11.960;2023-02-13T11:46:42;96690.41;;;3.27;100.00
23363;BME280;11853;48.080;11.960;2023-02-13T11:51:53;96696.38;;;3.30;100.00
23363;BME280;11853;48.080;11.960;2023-02-13T11:54:32;96699.81;;;3.32;100.00
23363;BME280;11853;48.080;11.960;2023-02-13T11:59:45;96707.81;;;3.50;100.00
23363;BME280;11853;48.080;11.960;2023-02-13T12:04:44;96703.03;;;3.59;100.00
23363;BME280;11853;48.080;11.960;2023-02-13T12:07:28;96694.50;;;3.54;100.00
23363;BME280;11853;48.080;11.960;2023-02-13T12:10:10;96701.09;;;3.65;100.00
23363;BME280;11853;48.080;11.960;2023-02-13T12:12:56;96694.00;;;3.67;100.00
23363;BME280;11853;48.080;11.960;2023-02-13T12:15:29;96695.03;;;3.63;100.00
23363;BME280;11853;48.080;11.960;2023-02-13T12:20:25;96689.06;;;3.79;100.00
23363;BME280;11853;48.080;11.960;2023-02-13T12:28:12;96680.28;;;4.01;100.00
23363;BME280;11853;48.080;11.960;2023-02-13T12:31:03;96689.88;;;4.02;100.00
23363;BME280;11853;48.080;11.960;2023-02-13T12:39:57;96673.69;;;4.11;100.00
23363;BME280;11853;48.080;11.960;2023-02-13T12:42:31;96669.13;;;3.96;100.00
23363;BME280;11853;48.080;11.960;2023-02-13T12:45:15;96669.25;;;3.93;100.00
23363;BME280;11853;48.080;11.960;2023-02-13T12:57:11;96661.03;;;4.00;100.00
23363;BME280;11853;48.080;11.960;2023-02-13T13:03:27;96665.91;;;4.10;100.00
23363;BME280;11853;48.080;11.960;2023-02-13T13:06:03;96660.50;;;4.13;100.00
23363;BME280;11853;48.080;11.960;2023-02-13T13:11:26;96646.44;;;4.14;100.00
23363;BME280;11853;48.080;11.960;2023-02-13T13:14:17;96651.09;;;4.27;100.00
23363;BME280;11853;48.080;11.960;2023-02-13T13:22:04;96658.91;;;3.90;100.00
23363;BME280;11853;48.080;11.960;2023-02-13T13:27:22;96669.97;;;3.96;100.00
23363;BME280;11853;48.080;11.960;2023-02-13T13:29:58;96661.31;;;3.74;100.00
23363;BME280;11853;48.080;11.960;2023-02-13T13:32:26;96664.06;;;3.71;100.00
23363;BME280;11853;48.080;11.960;2023-02-13T13:34:55;96663.69;;;3.80;100.00
23363;BME280;11853;48.080;11.960;2023-02-13T13:37:35;96667.41;;;3.95;100.00
23363;BME280;11853;48.080;11.960;2023-02-13T13:50:41;96674.28;;;3.97;100.00
23363;BME280;11853;48.080;11.960;2023-02-13T13:58:42;96663.94;;;3.94;100.00
23363;BME280;11853;48.080;11.960;2023-02-13T14:01:27;96663.09;;;3.94;100.00
23363;BME280;11853;48.080;11.960;2023-02-13T14:03:57;96657.78;;;3.95;100.00
23363;BME280;11853;48.080;11.960;2023-02-13T14:07:13;96657.97;;;3.91;100.00
23363;BME280;11853;48.080;11.960;2023-02-13T14:11:51;96651.53;;;3.98;100.00
23363;BME280;11853;48.080;11.960;2023-02-13T14:16:59;96652.97;;;4.05;100.00
23363;BME280;11853;48.080;11.960;2023-02-13T14:19:32;96650.16;;;4.10;100.00
23363;BME280;11853;48.080;11.960;2023-02-13T14:24:56;96650.34;;;4.05;100.00
23363;BME280;11853;48.080;11.960;2023-02-13T14:27:27;96647.56;;;4.08;100.00
23363;BME280;11853;48.080;11.960;2023-02-13T14:29:54;96648.25;;;3.93;100.00
23363;BME280;11853;48.080;11.960;2023-02-13T14:35:00;96649.25;;;3.90;100.00
23363;BME280;11853;48.080;11.960;2023-02-13T14:37:37;96657.59;;;3.79;100.00
23363;BME280;11853;48.080;11.960;2023-02-13T14:42:41;96649.97;;;3.53;100.00
23363;BME280;11853;48.080;11.960;2023-02-13T14:45:15;96659.94;;;3.45;100.00
23363;BME280;11853;48.080;11.960;2023-02-13T14:47:45;96657.31;;;3.45;100.00
23363;BME280;11853;48.080;11.960;2023-02-13T14:50:25;96659.13;;;3.43;100.00
23363;BME280;11853;48.080;11.960;2023-02-13T14:52:53;96655.75;;;3.41;100.00
23363;BME280;11853;48.080;11.960;2023-02-13T14:55:37;96647.50;;;3.50;100.00
23363;BME280;11853;48.080;11.960;2023-02-13T14:58:24;96644.59;;;3.56;100.00
23363;BME280;11853;48.080;11.960;2023-02-13T15:04:02;96647.63;;;3.67;100.00
23363;BME280;11853;48.080;11.960;2023-02-13T15:06:39;96642.03;;;3.54;100.00
23363;BME280;11853;48.080;11.960;2023-02-13T15:09:18;96638.38;;;3.58;100.00
23363;BME280;11853;48.080;11.960;2023-02-13T15:11:44;96636.06;;;3.51;100.00
23363;BME280;11853;48.080;11.960;2023-02-13T15:16:50;96630.81;;;3.30;100.00
23363;BME280;11853;48.080;11.960;2023-02-13T15:19:19;96623.91;;;3.28;100.00
23363;BME280;11853;48.080;11.960;2023-02-13T15:21:59;96622.75;;;3.35;100.00
23363;BME280;11853;48.080;11.960;2023-02-13T15:24:29;96627.25;;;3.31;100.00
23363;BME280;11853;48.080;11.960;2023-02-13T15:27:02;96626.75;;;3.44;100.00
23363;BME280;11853;48.080;11.960;2023-02-13T15:29:30;96629.88;;;3.31;100.00
23363;BME280;11853;48.080;11.960;2023-02-13T15:31:57;96634.72;;;3.20;100.00
23363;BME280;11853;48.080;11.960;2023-02-13T15:34:29;96635.91;;;3.13;100.00
23363;BME280;11853;48.080;11.960;2023-02-13T15:36:57;96640.19;;;2.93;100.00
23363;BME280;11853;48.080;11.960;2023-02-13T15:39:28;96634.75;;;2.98;100.00
23363;BME280;11853;48.080;11.960;2023-02-13T15:42:01;96628.84;;;2.93;100.00
23363;BME280;11853;48.080;11.960;2023-02-13T15:44:30;96624.88;;;3.05;100.00